createdAt,value
2019-04-14T00:01:54.532Z,17.45
2019-04-14T00:04:33.314Z,15.43
2019-04-14T00:07:01.529Z,15.03
2019-04-14T00:09:29.452Z,19.30
2019-04-14T00:11:57.016Z,13.93
2019-04-14T00:14:25.043Z,16.00
2019-04-14T00:16:53.186Z,14.80
2019-04-14T00:19:23.771Z,22.55
2019-04-14T00:21:52.198Z,14.07
2019-04-14T00:24:20.623Z,11.18
2019-04-14T00:26:48.790Z,16.93
2019-04-14T00:29:16.035Z,12.95
2019-04-14T00:31:43.349Z,13.98
2019-04-14T00:34:14.124Z,13.75
2019-04-14T00:36:45.985Z,17.75
2019-04-14T00:39:16.182Z,18.65
2019-04-14T00:41:55.619Z,16.63
2019-04-14T00:44:40.857Z,19.80
2019-04-14T00:47:22.262Z,19.00
2019-04-14T00:52:16.882Z,16.62
2019-04-14T00:54:45.621Z,14.73
2019-04-14T00:57:13.687Z,13.32
2019-04-14T00:59:41.905Z,11.08
2019-04-14T01:02:09.887Z,16.07
2019-04-14T01:04:38.222Z,9.95
2019-04-14T01:07:06.536Z,14.63
2019-04-14T01:09:34.791Z,16.17
2019-04-14T01:12:02.085Z,14.90
2019-04-14T01:14:29.874Z,11.22
2019-04-14T01:16:58.027Z,13.88
2019-04-14T01:19:26.637Z,15.68
2019-04-14T01:21:54.592Z,12.85
2019-04-14T01:24:22.815Z,13.83
2019-04-14T01:26:50.655Z,12.18
2019-04-14T01:29:18.802Z,12.33
2019-04-14T01:31:47.109Z,12.73
2019-04-14T01:34:15.201Z,11.55
2019-04-14T01:36:43.187Z,14.35
2019-04-14T01:39:11.145Z,12.23
2019-04-14T01:41:38.936Z,14.10
2019-04-14T01:44:06.853Z,14.33
2019-04-14T01:46:35.741Z,13.93
2019-04-14T01:49:03.052Z,11.38
2019-04-14T01:51:37.846Z,19.20
2019-04-14T01:54:19.215Z,11.63
2019-04-14T01:56:49.245Z,9.83
2019-04-14T01:59:17.796Z,18.87
2019-04-14T02:01:49.914Z,12.05
2019-04-14T02:04:18.133Z,9.95
2019-04-14T02:06:46.226Z,11.55
2019-04-14T02:09:14.267Z,11.08
2019-04-14T02:11:42.350Z,11.15
2019-04-14T02:14:10.415Z,11.48
2019-04-14T02:16:44.390Z,11.03
2019-04-14T02:19:07.266Z,10.95
2019-04-14T02:21:34.608Z,11.15
2019-04-14T02:24:02.552Z,12.93
2019-04-14T02:26:31.017Z,11.50
2019-04-14T02:28:59.243Z,13.45
2019-04-14T02:31:55.009Z,10.88
2019-04-14T02:34:28.369Z,10.03
2019-04-14T02:36:57.137Z,7.87
2019-04-14T02:39:24.233Z,11.15
2019-04-14T02:42:00.344Z,16.97
2019-04-14T02:44:28.443Z,12.43
2019-04-14T02:49:14.351Z,17.12
2019-04-14T02:54:34.111Z,14.05
2019-04-14T02:56:45.198Z,15.32
2019-04-14T02:59:13.216Z,12.80
2019-04-14T03:04:13.449Z,45.85
2019-04-14T03:06:46.894Z,77.65
2019-04-14T03:11:38.056Z,14.75
2019-04-14T03:14:07.006Z,10.68
2019-04-14T03:16:58.426Z,12.37
2019-04-14T03:19:44.141Z,70.55
2019-04-14T03:22:24.070Z,22.75
2019-04-14T03:24:48.658Z,133.67
2019-04-14T03:27:41.890Z,21.57
2019-04-14T03:30:18.851Z,23.02
2019-04-14T03:33:14.183Z,23.55
2019-04-14T03:35:35.069Z,18.75
2019-04-14T03:37:45.097Z,20.15
2019-04-14T03:40:10.052Z,18.27
2019-04-14T03:45:04.424Z,59.03
2019-04-14T03:50:05.966Z,36.15
2019-04-14T03:52:53.298Z,37.05
2019-04-14T03:54:52.465Z,22.95
2019-04-14T03:57:04.046Z,29.18
2019-04-14T03:59:32.344Z,42.55
2019-04-14T04:02:00.872Z,25.72
2019-04-14T04:04:29.346Z,90.75
2019-04-14T04:06:57.458Z,63.23
2019-04-14T04:09:27.804Z,80.65
2019-04-14T04:12:07.772Z,55.12
2019-04-14T04:14:35.687Z,26.70
2019-04-14T04:17:05.680Z,34.78
2019-04-14T04:19:35.896Z,39.53
2019-04-14T04:22:21.610Z,26.90
2019-04-14T04:24:50.746Z,26.70
2019-04-14T04:27:20.058Z,41.98
2019-04-14T04:30:05.992Z,27.58
2019-04-14T04:32:53.508Z,27.32
2019-04-14T04:35:23.836Z,18.87
2019-04-14T04:37:58.497Z,11.90
2019-04-14T04:40:31.203Z,14.35
2019-04-14T04:42:59.193Z,20.37
2019-04-14T04:45:27.796Z,22.65
2019-04-14T04:47:55.601Z,18.15
2019-04-14T04:50:23.903Z,11.93
2019-04-14T04:52:51.791Z,15.23
2019-04-14T04:55:19.823Z,9.35
2019-04-14T04:57:48.061Z,9.50
2019-04-14T05:00:15.633Z,11.53
2019-04-14T05:02:43.891Z,12.63
2019-04-14T05:05:29.590Z,10.72
2019-04-14T05:07:57.634Z,11.93
2019-04-14T05:10:26.760Z,13.18
2019-04-14T05:12:56.485Z,14.43
2019-04-14T05:15:31.490Z,17.42
2019-04-14T05:17:58.743Z,11.55
2019-04-14T05:20:27.029Z,10.28
2019-04-14T05:22:55.036Z,12.80
2019-04-14T05:25:23.221Z,15.72
2019-04-14T05:27:51.610Z,13.75
2019-04-14T05:30:19.698Z,19.10
2019-04-14T05:32:47.958Z,17.82
2019-04-14T05:35:16.201Z,10.90
2019-04-14T05:37:44.366Z,29.35
2019-04-14T05:40:14.458Z,34.38
2019-04-14T05:42:42.733Z,18.90
2019-04-14T05:45:11.151Z,18.50
2019-04-14T05:47:39.378Z,13.22
2019-04-14T05:50:07.350Z,14.53
2019-04-14T05:52:36.030Z,16.27
2019-04-14T05:55:04.858Z,16.70
2019-04-14T05:57:32.696Z,17.73
2019-04-14T06:00:01.650Z,19.98
2019-04-14T06:02:31.010Z,16.52
2019-04-14T06:04:59.368Z,10.98
2019-04-14T06:07:27.229Z,20.50
2019-04-14T06:09:54.456Z,19.45
2019-04-14T06:12:21.661Z,15.18
2019-04-14T06:14:49.655Z,15.13
2019-04-14T06:17:17.119Z,14.03
2019-04-14T06:19:44.353Z,26.52
2019-04-14T06:22:11.800Z,17.23
2019-04-14T06:24:39.073Z,12.65
2019-04-14T06:27:06.280Z,13.90
2019-04-14T06:29:33.573Z,16.42
2019-04-14T06:32:03.583Z,13.22
2019-04-14T06:34:35.805Z,18.27
2019-04-14T06:37:04.814Z,19.62
2019-04-14T06:39:33.820Z,16.57
2019-04-14T06:42:01.659Z,18.37
2019-04-14T06:44:28.881Z,12.58
2019-04-14T06:46:56.183Z,22.45
2019-04-14T06:49:23.534Z,20.97
2019-04-14T06:51:50.737Z,17.32
2019-04-14T06:54:18.689Z,12.90
2019-04-14T06:56:46.026Z,10.05
2019-04-14T06:59:13.304Z,17.98
2019-04-14T07:01:40.533Z,13.48
2019-04-14T07:04:07.888Z,10.98
2019-04-14T07:06:35.214Z,13.90
2019-04-14T07:09:02.420Z,9.53
2019-04-14T07:11:31.228Z,10.30
2019-04-14T07:13:58.473Z,8.78
2019-04-14T07:16:25.866Z,11.40
2019-04-14T07:18:53.487Z,13.90
2019-04-14T07:21:20.720Z,12.68
2019-04-14T07:23:47.955Z,13.20
2019-04-14T07:26:15.252Z,10.00
2019-04-14T07:28:42.544Z,10.60
2019-04-14T07:31:17.422Z,14.83
2019-04-14T07:33:55.704Z,11.15
2019-04-14T07:36:24.777Z,15.72
2019-04-14T07:38:56.821Z,9.75
2019-04-14T07:41:26.233Z,10.13
2019-04-14T07:44:05.663Z,10.30
2019-04-14T07:46:34.761Z,8.50
2019-04-14T07:49:06.560Z,9.43
2019-04-14T07:51:38.976Z,12.50
2019-04-14T07:54:17.291Z,14.58
2019-04-14T07:56:46.395Z,51.33
2019-04-14T07:59:18.009Z,9.53
2019-04-14T08:01:49.760Z,16.85
2019-04-14T08:04:19.022Z,8.88
2019-04-14T08:06:48.060Z,12.10
2019-04-14T08:09:15.327Z,9.35
2019-04-14T08:11:42.551Z,9.30
2019-04-14T08:14:11.005Z,9.65
2019-04-14T08:16:38.670Z,9.90
2019-04-14T08:19:05.924Z,36.30
2019-04-14T08:21:33.152Z,9.15
2019-04-14T08:24:00.448Z,7.85
2019-04-14T08:26:27.674Z,9.05
2019-04-14T08:28:55.245Z,14.85
2019-04-14T08:31:22.580Z,9.10
2019-04-14T08:33:49.793Z,9.55
2019-04-14T08:36:17.028Z,7.97
2019-04-14T08:38:44.291Z,10.23
2019-04-14T08:41:11.516Z,9.60
2019-04-14T08:43:40.559Z,10.38
2019-04-14T08:46:19.014Z,8.00
2019-04-14T08:48:48.026Z,8.98
2019-04-14T08:51:22.963Z,7.47
2019-04-14T08:53:52.001Z,9.93
2019-04-14T08:56:29.654Z,6.58
2019-04-14T08:59:10.290Z,11.48
2019-04-14T09:01:51.307Z,10.25
2019-04-14T09:04:26.486Z,10.70
2019-04-14T09:07:10.396Z,8.45
2019-04-14T09:09:44.925Z,7.37
2019-04-14T09:12:15.845Z,7.97
2019-04-14T09:17:12.099Z,10.23
2019-04-14T09:19:39.409Z,6.55
2019-04-14T09:22:06.643Z,8.48
2019-04-14T09:24:33.875Z,7.85
2019-04-14T09:27:01.208Z,6.47
2019-04-14T09:29:28.443Z,14.15
2019-04-14T09:31:55.740Z,7.47
2019-04-14T09:34:22.979Z,11.65
2019-04-14T09:36:50.187Z,13.38
2019-04-14T09:39:17.567Z,7.87
2019-04-14T09:41:44.992Z,5.83
2019-04-14T09:44:12.305Z,9.45
2019-04-14T09:46:41.207Z,4.65
2019-04-14T09:49:08.501Z,10.95
2019-04-14T09:51:35.730Z,8.43
2019-04-14T09:54:02.971Z,13.43
2019-04-14T09:56:30.575Z,8.83
2019-04-14T09:58:58.114Z,7.75
2019-04-14T10:01:25.448Z,4.55
2019-04-14T10:03:52.768Z,11.85
2019-04-14T10:06:20.033Z,10.08
2019-04-14T10:08:47.270Z,5.70
2019-04-14T10:11:14.554Z,13.03
2019-04-14T10:13:41.759Z,12.73
2019-04-14T10:16:09.283Z,6.15
2019-04-14T10:18:36.642Z,5.35
2019-04-14T10:21:16.246Z,13.30
2019-04-14T10:23:32.904Z,3.90
2019-04-14T10:26:00.155Z,5.08
2019-04-14T10:28:27.364Z,5.22
2019-04-14T10:30:54.596Z,9.15
2019-04-14T10:33:21.890Z,7.25
2019-04-14T10:35:49.257Z,10.85
2019-04-14T10:38:17.084Z,9.00
2019-04-14T10:40:44.363Z,14.75
2019-04-14T10:43:11.787Z,8.63
2019-04-14T10:45:39.103Z,6.78
2019-04-14T10:48:08.415Z,7.80
2019-04-14T10:50:35.643Z,12.65
2019-04-14T10:53:02.884Z,8.95
2019-04-14T10:55:30.174Z,3.77
2019-04-14T10:57:57.371Z,5.58
2019-04-14T11:00:25.786Z,7.08
2019-04-14T11:02:53.077Z,7.95
2019-04-14T11:05:20.439Z,7.65
2019-04-14T11:07:47.728Z,8.50
2019-04-14T11:10:14.991Z,5.20
2019-04-14T11:12:42.386Z,11.22
2019-04-14T11:15:09.602Z,6.45
2019-04-14T11:17:36.935Z,5.00
2019-04-14T11:20:06.945Z,6.33
2019-04-14T11:22:34.175Z,3.92
2019-04-14T11:25:01.458Z,5.67
2019-04-14T11:27:28.694Z,5.97
2019-04-14T11:29:55.926Z,5.78
2019-04-14T11:32:36.672Z,6.10
2019-04-14T11:35:08.739Z,6.55
2019-04-14T11:37:47.058Z,5.75
2019-04-14T11:40:16.166Z,7.47
2019-04-14T11:42:52.309Z,7.20
2019-04-14T11:45:12.452Z,5.20
2019-04-14T11:47:39.673Z,7.40
2019-04-14T11:50:07.538Z,6.15
2019-04-14T11:52:35.751Z,5.53
2019-04-14T11:55:03.851Z,7.87
2019-04-14T11:57:33.323Z,4.62
2019-04-14T12:00:05.229Z,8.13
2019-04-14T12:02:49.506Z,7.25
2019-04-14T12:05:24.345Z,5.87
2019-04-14T12:07:55.928Z,6.78
2019-04-14T12:10:23.977Z,8.60
2019-04-14T12:12:51.182Z,6.78
2019-04-14T12:15:18.426Z,6.97
2019-04-14T12:17:46.602Z,5.92
2019-04-14T12:20:13.826Z,3.87
2019-04-14T12:22:41.089Z,8.80
2019-04-14T12:25:08.389Z,10.78
2019-04-14T12:27:35.613Z,6.75
2019-04-14T12:30:04.981Z,7.72
2019-04-14T12:32:32.261Z,9.70
2019-04-14T12:34:59.542Z,7.50
2019-04-14T12:37:26.803Z,4.70
2019-04-14T12:39:55.108Z,5.28
2019-04-14T12:42:24.192Z,3.52
2019-04-14T12:44:59.661Z,6.45
2019-04-14T12:47:39.798Z,5.47
2019-04-14T12:50:17.675Z,7.75
2019-04-14T12:52:45.260Z,3.85
2019-04-14T12:55:12.485Z,4.50
2019-04-14T12:57:50.407Z,2.47
2019-04-14T13:00:19.464Z,2.65
2019-04-14T13:02:53.251Z,4.37
2019-04-14T13:05:20.491Z,5.25
2019-04-14T13:07:47.728Z,4.58
2019-04-14T13:10:15.478Z,2.75
2019-04-14T13:12:42.785Z,3.85
2019-04-14T13:15:10.017Z,4.47
2019-04-14T13:17:37.309Z,2.62
2019-04-14T13:20:05.596Z,6.65
2019-04-14T13:22:34.217Z,5.20
2019-04-14T13:25:01.864Z,5.35
2019-04-14T13:27:29.075Z,3.75
2019-04-14T13:29:56.337Z,9.95
2019-04-14T13:32:35.392Z,11.95
2019-04-14T13:34:52.934Z,5.25
2019-04-14T13:37:20.178Z,5.20
2019-04-14T13:39:47.463Z,6.50
2019-04-14T13:42:14.692Z,4.70
2019-04-14T13:44:41.977Z,5.60
2019-04-14T13:47:09.247Z,4.50
2019-04-14T13:49:36.486Z,3.50
2019-04-14T13:52:03.710Z,3.42
2019-04-14T13:54:31.216Z,7.08
2019-04-14T13:56:58.462Z,2.85
2019-04-14T13:59:26.164Z,2.83
2019-04-14T14:01:53.454Z,3.00
2019-04-14T14:04:20.664Z,8.08
2019-04-14T14:06:47.901Z,6.25
2019-04-14T14:09:15.516Z,4.95
2019-04-14T14:11:53.240Z,6.90
2019-04-14T14:14:40.057Z,7.72
2019-04-14T14:17:09.143Z,19.48
2019-04-14T14:19:47.377Z,7.80
2019-04-14T14:22:16.389Z,6.53
2019-04-14T14:25:01.022Z,6.87
2019-04-14T14:27:28.225Z,5.37
2019-04-14T14:29:55.445Z,5.00
2019-04-14T14:32:24.521Z,5.53
2019-04-14T14:34:51.760Z,9.40
2019-04-14T14:37:18.990Z,5.60
2019-04-14T14:39:46.290Z,4.55
2019-04-14T14:42:13.565Z,6.30
2019-04-14T14:44:42.682Z,5.67
2019-04-14T14:47:17.944Z,6.83
2019-04-14T14:50:01.889Z,8.75
2019-04-14T14:52:30.898Z,4.35
2019-04-14T14:54:58.698Z,8.38
2019-04-14T14:57:25.934Z,7.58
2019-04-14T14:59:53.200Z,5.83
2019-04-14T15:02:20.411Z,5.97
2019-04-14T15:04:47.616Z,7.55
2019-04-14T15:07:14.916Z,10.53
2019-04-14T15:09:42.172Z,14.58
2019-04-14T15:12:09.398Z,6.87
2019-04-14T15:14:36.678Z,6.33
2019-04-14T15:17:03.902Z,5.67
2019-04-14T15:19:31.169Z,8.40
2019-04-14T15:21:58.752Z,3.90
2019-04-14T15:24:25.998Z,8.88
2019-04-14T15:26:53.226Z,9.78
2019-04-14T15:29:20.501Z,12.95
2019-04-14T15:31:47.814Z,4.42
2019-04-14T15:34:15.057Z,5.17
2019-04-14T15:36:42.373Z,5.65
2019-04-14T15:39:09.893Z,4.97
2019-04-14T15:41:37.162Z,9.60
2019-04-14T15:44:04.449Z,2.90
2019-04-14T15:46:31.666Z,9.85
2019-04-14T15:48:59.842Z,12.35
2019-04-14T15:51:27.476Z,16.30
2019-04-14T15:53:54.734Z,20.75
2019-04-14T15:56:36.181Z,17.80
2019-04-14T15:59:05.218Z,13.18
2019-04-14T16:01:34.258Z,18.35
2019-04-14T16:04:03.320Z,11.18
2019-04-14T16:06:32.353Z,16.90
2019-04-14T16:09:07.274Z,13.55
2019-04-14T16:11:54.392Z,6.45
2019-04-14T16:14:23.857Z,10.18
2019-04-14T16:17:10.075Z,11.33
2019-04-14T16:19:40.024Z,15.68
2019-04-14T16:22:07.334Z,13.03
2019-04-14T16:24:34.603Z,11.10
2019-04-14T16:27:03.678Z,14.18
2019-04-14T16:29:38.669Z,17.30
2019-04-14T16:32:13.894Z,19.32
2019-04-14T16:34:52.144Z,22.02
2019-04-14T16:37:20.486Z,15.43
2019-04-14T16:39:48.723Z,23.87
2019-04-14T16:42:15.971Z,31.95
2019-04-14T16:44:43.222Z,35.78
2019-04-14T16:47:10.495Z,41.65
2019-04-14T16:49:37.754Z,39.60
2019-04-14T16:52:12.640Z,43.73
2019-04-14T16:54:53.640Z,58.20
2019-04-14T16:57:28.747Z,38.88
2019-04-14T16:59:55.203Z,38.20
2019-04-14T17:02:22.509Z,31.87
2019-04-14T17:04:49.978Z,25.77
2019-04-14T17:07:17.217Z,19.90
2019-04-14T17:09:44.474Z,25.35
2019-04-14T17:12:13.629Z,33.70
2019-04-14T17:14:48.574Z,21.12
2019-04-14T17:17:26.468Z,15.80
2019-04-14T17:20:04.510Z,17.55
2019-04-14T17:22:43.303Z,20.12
2019-04-14T17:25:30.674Z,18.70
2019-04-14T17:28:14.731Z,18.85
2019-04-14T17:30:46.269Z,21.48
2019-04-14T17:33:21.433Z,17.92
2019-04-14T17:35:50.485Z,18.67
2019-04-14T17:38:22.466Z,19.57
2019-04-14T17:41:00.520Z,16.73
2019-04-14T17:43:35.510Z,17.27
2019-04-14T17:46:04.561Z,14.20
2019-04-14T17:48:40.983Z,18.05
2019-04-14T17:51:09.999Z,19.55
2019-04-14T17:53:39.033Z,22.48
2019-04-14T17:56:13.965Z,39.73
2019-04-14T17:58:58.260Z,107.67
2019-04-14T18:01:36.330Z,181.63
2019-04-14T18:04:11.446Z,261.12
2019-04-14T18:06:43.398Z,169.45
2019-04-14T18:09:15.295Z,108.52
2019-04-14T18:11:44.371Z,52.48
2019-04-14T18:14:31.482Z,34.67
2019-04-14T18:17:00.589Z,27.20
2019-04-14T18:19:32.224Z,24.72
2019-04-14T18:22:00.191Z,25.05
2019-04-14T18:24:27.502Z,25.72
2019-04-14T18:26:54.774Z,41.33
2019-04-14T18:29:26.638Z,27.50
2019-04-14T18:31:55.728Z,30.80
2019-04-14T18:34:43.961Z,39.23
2019-04-14T18:37:27.973Z,40.00
2019-04-14T18:40:06.258Z,44.63
2019-04-14T18:42:38.070Z,57.93
2019-04-14T18:45:07.184Z,57.15
2019-04-14T18:47:48.196Z,60.35
2019-04-14T18:50:29.216Z,59.60
2019-04-14T18:53:10.205Z,54.45
2019-04-14T18:55:41.886Z,49.77
2019-04-14T18:58:23.030Z,47.15
2019-04-14T19:00:55.326Z,52.55
2019-04-14T19:03:22.578Z,66.37
2019-04-14T19:05:49.839Z,56.68
2019-04-14T19:08:18.204Z,55.25
2019-04-14T19:10:50.045Z,57.78
2019-04-14T19:13:33.814Z,51.65
2019-04-14T19:16:02.937Z,41.77
2019-04-14T19:18:31.993Z,41.65
2019-04-14T19:21:01.087Z,31.82
2019-04-14T19:23:29.319Z,35.35
2019-04-14T19:25:56.545Z,37.45
2019-04-14T19:28:24.289Z,44.88
2019-04-14T19:30:51.494Z,28.30
2019-04-14T19:33:18.724Z,17.15
2019-04-14T19:35:46.000Z,18.25
2019-04-14T19:38:13.273Z,16.27
2019-04-14T19:40:40.543Z,18.87
2019-04-14T19:43:07.816Z,21.87
2019-04-14T19:45:35.052Z,31.97
2019-04-14T19:48:02.313Z,26.80
2019-04-14T19:50:29.634Z,27.87
2019-04-14T19:52:56.839Z,28.55
2019-04-14T19:55:24.071Z,22.55
2019-04-14T19:57:51.515Z,20.35
2019-04-14T20:00:20.190Z,19.05
2019-04-14T20:02:48.420Z,18.55
2019-04-14T20:05:15.754Z,17.85
2019-04-14T20:07:43.061Z,23.05
2019-04-14T20:10:11.207Z,23.73
2019-04-14T20:12:39.604Z,19.27
2019-04-14T20:15:08.685Z,19.27
2019-04-14T20:17:43.669Z,18.75
2019-04-14T20:20:18.565Z,15.95
2019-04-14T20:22:47.706Z,15.78
2019-04-14T20:25:16.738Z,17.07
2019-04-14T20:27:45.844Z,15.20
2019-04-14T20:30:14.960Z,17.35
2019-04-14T20:32:45.465Z,20.50
2019-04-14T20:35:12.915Z,20.02
2019-04-14T20:37:41.485Z,15.78
2019-04-14T20:40:08.710Z,18.55
2019-04-14T20:42:35.953Z,21.60
2019-04-14T20:45:05.580Z,19.17
2019-04-14T20:47:33.973Z,23.22
2019-04-14T20:50:01.214Z,15.35
2019-04-14T20:52:28.856Z,19.30
2019-04-14T20:54:56.081Z,15.90
2019-04-14T20:57:23.295Z,16.95
2019-04-14T20:59:50.584Z,18.42
2019-04-14T21:02:30.187Z,21.02
2019-04-14T21:05:17.504Z,15.25
2019-04-14T21:08:02.968Z,21.77
2019-04-14T21:10:32.043Z,16.23
2019-04-14T21:13:17.447Z,17.02
2019-04-14T21:15:55.457Z,16.90
2019-04-14T21:18:24.502Z,16.62
2019-04-14T21:20:56.610Z,19.87
2019-04-14T21:23:41.691Z,17.45
2019-04-14T21:26:11.127Z,13.68
2019-04-14T21:28:55.312Z,11.80
2019-04-14T21:31:33.292Z,10.65
2019-04-14T21:34:05.409Z,14.05
2019-04-14T21:36:34.555Z,16.97
2019-04-14T21:39:12.425Z,11.28
2019-04-14T21:41:42.000Z,10.88
2019-04-14T21:44:09.233Z,12.30
2019-04-14T21:46:36.477Z,9.45
2019-04-14T21:49:03.731Z,12.90
2019-04-14T21:51:49.180Z,10.65
2019-04-14T21:54:17.506Z,12.53
2019-04-14T21:56:46.534Z,11.83
2019-04-14T21:59:18.212Z,10.20
2019-04-14T22:02:03.617Z,9.60
2019-04-14T22:04:49.064Z,9.85
2019-04-14T22:07:25.676Z,11.25
2019-04-14T22:09:54.759Z,12.80
2019-04-14T22:12:21.984Z,11.48
2019-04-14T22:14:49.187Z,10.40
2019-04-14T22:17:16.484Z,12.07
2019-04-14T22:19:43.713Z,10.38
2019-04-14T22:22:11.288Z,8.75
2019-04-14T22:24:38.587Z,9.78
2019-04-14T22:27:05.824Z,11.05
2019-04-14T22:29:33.031Z,10.08
2019-04-14T22:32:00.319Z,8.78
2019-04-14T22:34:27.554Z,9.68
2019-04-14T22:36:54.790Z,11.40
2019-04-14T22:39:22.140Z,14.15
2019-04-14T22:41:49.365Z,9.50
2019-04-14T22:44:16.892Z,6.40
2019-04-14T22:46:44.195Z,12.20
2019-04-14T22:49:11.419Z,7.80
2019-04-14T22:51:39.636Z,9.80
2019-04-14T22:54:07.938Z,9.13
2019-04-14T22:56:39.470Z,9.68
2019-04-14T22:59:04.703Z,13.00
2019-04-14T23:01:33.812Z,20.30
2019-04-14T23:04:02.830Z,12.13
2019-04-14T23:06:31.878Z,9.95
2019-04-14T23:09:17.969Z,10.28
2019-04-14T23:11:55.937Z,11.88
2019-04-14T23:14:42.665Z,9.70
2019-04-14T23:17:28.344Z,12.10
2019-04-14T23:19:57.812Z,11.57
2019-04-14T23:22:43.127Z,10.63
2019-04-14T23:25:10.752Z,6.20
2019-04-14T23:27:37.988Z,7.00
2019-04-14T23:30:05.206Z,8.68
2019-04-14T23:32:32.482Z,9.55
2019-04-14T23:35:00.069Z,9.30
2019-04-14T23:37:27.306Z,6.20
2019-04-14T23:39:54.596Z,7.85
2019-04-14T23:42:21.880Z,7.10
2019-04-14T23:44:49.090Z,13.15
2019-04-14T23:47:16.379Z,15.85
2019-04-14T23:49:43.608Z,13.22
2019-04-14T23:52:10.859Z,11.53
2019-04-14T23:54:38.135Z,12.70
2019-04-14T23:57:06.763Z,11.18
2019-04-14T23:59:34.394Z,7.17
